Terminal Aerodrome Forecast
Issued by NWS

Home | Current Version | Previous Version | Text Only | Print | Product List | Glossary On
Versions: 1 2 3 4 5 6 7 8 9 10 11 12 13 14 15 16
868
FTUS45 KPSR 271606 AAB
TAFBLH
TAF AMD
KBLH 271606Z 2716/2812 12008KT P6SM VCSH BKN050 OVC070
     FM271900 19012G19KT P6SM VCSH BKN050 OVC070
      TEMPO 2719/2723 -SHRA BKN040
     FM272300 22012KT P6SM -RA FEW030 BKN040
     FM280500 22010KT P6SM SCT070 BKN140=

USA.gov is the U.S. government's official web portal to all federal, state and local government web resources and services.